Time;durP1;ratioP1;P1;durP2;ratioP2;P2;SDS_P1;SDS_P2;PMS_P1;PMS_P2;Temp;Humidity;BMP_temperature;BMP_pressure;BME280_temperature;BME280_humidity;BME280_pressure;Samples;Min_cycle;Max_cycle;Signal;HPM_P1;HPM_P2
2022/10/18 00:01:56;;;;;;;2.42;2.22;;;23.00;62.90;;;;;;5099081;28;20044;-41
2022/10/18 00:04:22;;;;;;;2.70;2.40;;;22.90;62.60;;;;;;5085585;28;20051;-42
2022/10/18 00:07:08;;;;;;;3.65;2.28;;;22.90;62.10;;;;;;5085393;28;20063;-41
2022/10/18 00:09:34;;;;;;;2.67;2.25;;;22.90;61.90;;;;;;5042618;28;20529;-42
2022/10/18 00:12:00;;;;;;;2.70;2.50;;;22.90;61.90;;;;;;5041970;28;20049;-41
2022/10/18 00:14:26;;;;;;;3.80;2.28;;;22.90;61.80;;;;;;5042591;28;20037;-41
2022/10/18 00:16:52;;;;;;;2.20;2.00;;;22.90;61.70;;;;;;5042507;28;20136;-42
2022/10/18 00:19:18;;;;;;;2.78;2.58;;;22.90;61.70;;;;;;5042590;28;20033;-41
2022/10/18 00:21:45;;;;;;;3.13;2.20;;;22.90;61.70;;;;;;5061803;28;20033;-41
2022/10/18 00:24:11;;;;;;;2.33;2.13;;;22.80;61.50;;;;;;5062205;28;20426;-42
2022/10/18 00:26:37;;;;;;;3.35;2.30;;;22.80;61.50;;;;;;5062014;28;20045;-42
2022/10/18 00:29:04;;;;;;;3.42;2.20;;;22.80;61.50;;;;;;5062085;28;20017;-42
2022/10/18 00:31:32;;;;;;;3.38;2.47;;;22.80;61.50;;;;;;5047932;28;20110;-44
2022/10/18 00:34:20;;;;;;;2.50;2.30;;;22.80;61.50;;;;;;5064556;28;20025;-42
2022/10/18 00:36:46;;;;;;;2.73;2.40;;;22.80;61.50;;;;;;5062211;28;20078;-43
2022/10/18 00:39:16;;;;;;;2.47;2.28;;;22.80;61.50;;;;;;5061839;28;20132;-42
2022/10/18 00:41:42;;;;;;;2.33;2.13;;;22.70;61.30;;;;;;5061521;28;20094;-42
2022/10/18 00:44:11;;;;;;;2.60;2.40;;;22.70;61.30;;;;;;5062076;28;20051;-42
2022/10/18 00:46:44;;;;;;;2.58;2.30;;;22.70;61.40;;;;;;5078638;28;20036;-42
2022/10/18 00:49:13;;;;;;;2.50;2.30;;;22.70;61.30;;;;;;5119444;28;20057;-42
2022/10/18 00:51:43;;;;;;;2.28;2.10;;;22.70;61.30;;;;;;5121393;28;20594;-42
2022/10/18 00:54:09;;;;;;;3.00;2.25;;;22.70;61.20;;;;;;5087543;28;20055;-42
2022/10/18 00:56:36;;;;;;;3.00;2.70;;;22.70;61.20;;;;;;5124640;28;20031;-40
2022/10/18 00:59:02;;;;;;;2.95;2.63;;;22.60;61.20;;;;;;5084369;28;20202;-41
2022/10/18 01:01:28;;;;;;;5.75;2.55;;;22.60;61.30;;;;;;5121596;27;20484;-42
2022/10/18 01:03:54;;;;;;;8.02;2.90;;;22.60;61.30;;;;;;5119609;28;20024;-43
2022/10/18 01:06:21;;;;;;;9.88;3.38;;;22.60;61.80;;;;;;5122968;28;20032;-43
2022/10/18 01:08:55;;;;;;;9.30;3.63;;;22.60;62.40;;;;;;5124567;28;20840;-43
2022/10/18 01:11:32;;;;;;;9.32;3.20;;;22.60;63.10;;;;;;5103833;28;20032;-48
2022/10/18 01:14:07;;;;;;;9.90;3.55;;;22.60;63.90;;;;;;5101309;28;20036;-44
2022/10/18 01:16:51;;;;;;;8.43;3.55;;;22.60;64.20;;;;;;5091284;28;20099;-39
2022/10/18 01:19:45;;;;;;;14.75;3.70;;;22.60;64.40;;;;;;5118588;28;20042;-38
2022/10/18 01:22:14;;;;;;;14.60;3.75;;;22.60;64.50;;;;;;5101316;28;20082;-42
2022/10/18 01:25:04;;;;;;;19.50;3.72;;;22.60;64.10;;;;;;5104321;28;20492;-38
2022/10/18 01:27:54;;;;;;;11.98;3.38;;;22.60;63.70;;;;;;5111409;28;20040;-39
2022/10/18 01:30:37;;;;;;;10.25;3.00;;;22.50;62.70;;;;;;5089188;28;20039;-39
2022/10/18 01:33:12;;;;;;;10.90;3.40;;;22.50;63.60;;;;;;5092291;28;20032;-39
2022/10/18 01:35:43;;;;;;;14.02;3.47;;;22.50;63.40;;;;;;5103079;28;20027;-38
2022/10/18 01:38:11;;;;;;;10.45;3.35;;;22.50;63.10;;;;;;5132869;27;20040;-38
2022/10/18 01:40:37;;;;;;;7.60;3.13;;;22.50;62.90;;;;;;5104865;28;20079;-37
2022/10/18 01:43:03;;;;;;;8.23;2.58;;;22.50;62.80;;;;;;5117179;28;20027;-38
2022/10/18 01:45:30;;;;;;;9.07;3.50;;;22.50;63.00;;;;;;5094426;28;20040;-37
2022/10/18 01:47:56;;;;;;;6.95;2.88;;;22.40;63.00;;;;;;5100460;28;20030;-37
2022/10/18 01:50:33;;;;;;;5.95;2.47;;;22.40;63.10;;;;;;5123761;28;20485;-37
2022/10/18 01:52:59;;;;;;;5.75;2.40;;;22.40;63.20;;;;;;5114418;28;20795;-38
2022/10/18 01:55:30;;;;;;;7.75;2.42;;;22.40;63.30;;;;;;5100346;28;20028;-37
2022/10/18 01:58:21;;;;;;;4.85;2.25;;;22.30;63.30;;;;;;5098772;28;20121;-37
2022/10/18 02:00:49;;;;;;;5.78;2.20;;;22.30;63.30;;;;;;5099512;28;20042;-38
2022/10/18 02:03:23;;;;;;;5.15;2.20;;;22.30;63.30;;;;;;5126365;28;20050;-37
2022/10/18 02:06:27;;;;;;;3.33;2.40;;;22.30;63.30;;;;;;5134863;27;20099;-38
2022/10/18 02:09:04;;;;;;;3.70;2.13;;;22.30;63.30;;;;;;5097958;28;20047;-38
2022/10/18 02:11:30;;;;;;;2.90;2.07;;;22.20;63.30;;;;;;5134720;28;20069;-38
2022/10/18 02:14:07;;;;;;;2.87;1.87;;;22.20;63.40;;;;;;5096190;28;20550;-55
2022/10/18 02:16:49;;;;;;;2.30;1.90;;;22.20;63.40;;;;;;5133611;27;20167;-35
2022/10/18 02:19:26;;;;;;;2.65;1.85;;;22.20;63.40;;;;;;5107877;28;20016;-35
2022/10/18 02:21:52;;;;;;;2.05;1.50;;;22.20;63.30;;;;;;5104367;28;20385;-35
2022/10/18 02:24:19;;;;;;;2.67;2.08;;;22.20;63.30;;;;;;5107194;28;20030;-35
2022/10/18 02:26:45;;;;;;;1.90;1.50;;;22.20;63.40;;;;;;5126416;27;20032;-36
2022/10/18 02:29:11;;;;;;;3.20;1.60;;;22.20;63.30;;;;;;5107054;28;20559;-37
2022/10/18 02:31:42;;;;;;;2.00;1.42;;;22.10;63.30;;;;;;5102245;28;20028;-36
2022/10/18 02:34:22;;;;;;;1.88;1.48;;;22.10;63.20;;;;;;5109330;28;20592;-36
2022/10/18 02:36:55;;;;;;;2.28;1.45;;;22.10;63.20;;;;;;5102994;28;20023;-37
2022/10/18 02:39:26;;;;;;;1.80;1.30;;;22.10;63.30;;;;;;5106274;28;20020;-37
2022/10/18 02:41:53;;;;;;;1.60;1.50;;;22.10;63.10;;;;;;5104202;28;20024;-37
2022/10/18 02:44:19;;;;;;;2.30;1.25;;;22.00;63.00;;;;;;5121602;28;20039;-37
2022/10/18 02:46:45;;;;;;;1.90;1.40;;;22.00;63.20;;;;;;5104808;28;20062;-36
2022/10/18 02:49:12;;;;;;;2.50;1.60;;;22.00;63.30;;;;;;5102999;28;20032;-35
2022/10/18 02:51:38;;;;;;;1.98;1.23;;;22.00;63.30;;;;;;5107575;28;20028;-35
2022/10/18 02:54:04;;;;;;;1.63;1.30;;;22.00;63.30;;;;;;5105644;28;20047;-35
2022/10/18 02:56:30;;;;;;;2.13;1.25;;;22.00;63.30;;;;;;5103954;28;20020;-35
2022/10/18 02:58:56;;;;;;;2.07;1.30;;;22.00;63.20;;;;;;5105115;28;20030;-35
2022/10/18 03:01:23;;;;;;;1.30;1.20;;;22.00;63.10;;;;;;5104839;28;20066;-35
2022/10/18 03:03:49;;;;;;;1.00;0.90;;;22.00;63.00;;;;;;5105479;28;20020;-36
2022/10/18 03:06:15;;;;;;;1.25;0.82;;;21.90;63.00;;;;;;5104318;28;20058;-35
2022/10/18 03:08:41;;;;;;;2.63;1.20;;;21.90;63.00;;;;;;5107916;28;20039;-35
2022/10/18 03:11:07;;;;;;;1.30;1.02;;;21.90;63.00;;;;;;5104901;28;20024;-34
2022/10/18 03:13:33;;;;;;;1.95;1.23;;;21.90;63.00;;;;;;5105103;28;20097;-34
2022/10/18 03:16:00;;;;;;;1.50;1.20;;;21.90;63.00;;;;;;5106099;28;20054;-36
2022/10/18 03:18:26;;;;;;;1.83;1.10;;;21.90;63.00;;;;;;5105141;28;20053;-35
2022/10/18 03:20:52;;;;;;;1.35;1.00;;;21.90;63.00;;;;;;5105523;28;20029;-37
2022/10/18 03:23:18;;;;;;;1.23;1.10;;;21.80;62.90;;;;;;5103304;28;20083;-34
2022/10/18 03:25:44;;;;;;;1.10;1.00;;;21.80;62.80;;;;;;5110081;28;20077;-35
2022/10/18 03:28:10;;;;;;;1.38;1.02;;;21.80;62.90;;;;;;5104375;28;20530;-36
2022/10/18 03:30:37;;;;;;;1.23;0.80;;;21.80;62.90;;;;;;5103597;28;20062;-34
2022/10/18 03:33:07;;;;;;;1.10;1.00;;;21.80;62.90;;;;;;5094251;28;20555;-36
2022/10/18 03:35:33;;;;;;;1.02;0.93;;;21.70;62.90;;;;;;5096767;28;20052;-38
2022/10/18 03:37:59;;;;;;;1.50;1.10;;;21.70;62.90;;;;;;5106036;28;20020;-37
2022/10/18 03:40:26;;;;;;;1.33;1.00;;;21.70;63.00;;;;;;5104132;28;20032;-37
2022/10/18 03:42:52;;;;;;;1.48;1.05;;;21.70;62.90;;;;;;5125375;28;20102;-33
2022/10/18 03:45:18;;;;;;;1.30;0.98;;;21.70;62.90;;;;;;5108500;27;20088;-33
2022/10/18 03:47:44;;;;;;;0.80;0.80;;;21.70;62.90;;;;;;5105626;28;20061;-33
2022/10/18 03:50:10;;;;;;;1.13;1.00;;;21.70;62.80;;;;;;5105790;28;20054;-33
2022/10/18 03:52:36;;;;;;;2.38;1.13;;;21.70;62.80;;;;;;5105760;28;20039;-34
2022/10/18 03:55:03;;;;;;;1.23;0.90;;;21.60;62.70;;;;;;5104656;28;20052;-34
2022/10/18 03:57:29;;;;;;;1.05;0.80;;;21.60;62.70;;;;;;5103438;28;20028;-34
2022/10/18 03:59:55;;;;;;;0.65;0.63;;;21.60;63.50;;;;;;5107426;28;20088;-34
2022/10/18 04:02:21;;;;;;;1.00;0.88;;;21.60;62.80;;;;;;5104027;28;20533;-34
2022/10/18 04:04:47;;;;;;;1.00;0.90;;;21.60;62.70;;;;;;5099195;28;20056;-34
2022/10/18 04:07:13;;;;;;;1.10;0.80;;;21.60;62.80;;;;;;5104547;28;20042;-34
2022/10/18 04:09:39;;;;;;;0.95;0.90;;;21.50;62.70;;;;;;5085030;28;20028;-34
2022/10/18 04:12:05;;;;;;;0.90;0.70;;;21.60;62.70;;;;;;5090642;28;20036;-35
2022/10/18 04:14:31;;;;;;;0.73;0.73;;;21.60;62.90;;;;;;5102874;28;20046;-35
2022/10/18 04:16:57;;;;;;;0.80;0.70;;;21.50;63.00;;;;;;5120497;28;20023;-35
2022/10/18 04:19:24;;;;;;;2.15;1.00;;;21.50;63.10;;;;;;5100181;28;20020;-36
2022/10/18 04:21:50;;;;;;;0.90;0.80;;;21.50;63.00;;;;;;5110192;28;20035;-35
2022/10/18 04:24:16;;;;;;;0.98;0.70;;;21.50;63.00;;;;;;5125553;28;20071;-35
2022/10/18 04:26:43;;;;;;;1.00;0.80;;;21.50;62.90;;;;;;5110856;27;20095;-36
2022/10/18 04:29:09;;;;;;;1.27;0.80;;;21.50;62.90;;;;;;5105004;28;20027;-37
2022/10/18 04:31:35;;;;;;;0.85;0.80;;;21.50;62.90;;;;;;5099952;28;20067;-40
2022/10/18 04:34:03;;;;;;;0.88;0.73;;;21.40;62.80;;;;;;5106871;28;20047;-36
2022/10/18 04:36:30;;;;;;;1.17;1.02;;;21.40;62.90;;;;;;5104011;28;20038;-36
2022/10/18 04:38:56;;;;;;;1.17;0.80;;;21.40;63.00;;;;;;5105065;28;20028;-36
2022/10/18 04:41:22;;;;;;;0.73;0.70;;;21.40;62.90;;;;;;5103718;28;20028;-36
2022/10/18 04:43:48;;;;;;;1.33;1.02;;;21.40;63.00;;;;;;5104823;28;20020;-36
2022/10/18 04:46:14;;;;;;;0.98;0.80;;;21.40;63.00;;;;;;5104026;28;20036;-36
2022/10/18 04:48:40;;;;;;;1.25;0.75;;;21.40;63.00;;;;;;5104937;28;20061;-36
2022/10/18 04:51:06;;;;;;;1.17;0.80;;;21.40;62.90;;;;;;5112199;28;20107;-36
2022/10/18 04:53:32;;;;;;;0.80;0.70;;;21.40;62.80;;;;;;5104309;28;20048;-36
2022/10/18 04:55:58;;;;;;;2.28;0.63;;;21.30;62.80;;;;;;5114203;28;20659;-35
2022/10/18 04:58:24;;;;;;;1.08;0.80;;;21.30;62.70;;;;;;5124946;28;20047;-34
2022/10/18 05:00:51;;;;;;;0.90;0.68;;;21.30;62.70;;;;;;5116661;28;20480;-34
2022/10/18 05:03:17;;;;;;;1.25;0.60;;;21.30;62.70;;;;;;5096109;28;20044;-34
2022/10/18 05:05:44;;;;;;;0.90;0.87;;;21.30;62.70;;;;;;5087060;28;20041;-34
2022/10/18 05:08:11;;;;;;;1.98;1.20;;;21.20;62.90;;;;;;5124691;28;20039;-34
2022/10/18 05:10:37;;;;;;;1.10;0.80;;;21.20;63.00;;;;;;5083095;28;20017;-35
2022/10/18 05:13:03;;;;;;;1.27;0.85;;;21.20;63.00;;;;;;5100071;28;20584;-37
2022/10/18 05:15:29;;;;;;;1.05;0.50;;;21.20;62.90;;;;;;5098706;28;20039;-33
2022/10/18 05:17:55;;;;;;;2.25;0.75;;;21.20;62.80;;;;;;5102279;28;20040;-33
2022/10/18 05:20:21;;;;;;;1.05;0.70;;;21.20;62.80;;;;;;5096964;28;20033;-34
2022/10/18 05:22:48;;;;;;;1.17;0.80;;;21.10;62.60;;;;;;5100371;28;20077;-33
2022/10/18 05:25:14;;;;;;;1.55;0.85;;;21.10;63.40;;;;;;5095255;28;20033;-33
2022/10/18 05:27:40;;;;;;;1.00;0.70;;;21.10;62.60;;;;;;5083853;28;20033;-33
2022/10/18 05:30:06;;;;;;;1.30;0.60;;;21.10;62.60;;;;;;5115573;28;20027;-33
2022/10/18 05:32:32;;;;;;;1.00;0.68;;;21.00;62.60;;;;;;5093012;28;20025;-34
2022/10/18 05:34:59;;;;;;;0.60;0.50;;;21.00;62.50;;;;;;5103938;28;20043;-34
2022/10/18 05:37:43;;;;;;;0.63;0.43;;;21.00;62.40;;;;;;5097253;28;20127;-34
2022/10/18 05:40:10;;;;;;;0.50;0.50;;;21.00;62.40;;;;;;5107805;28;20028;-34
2022/10/18 05:42:36;;;;;;;0.50;0.50;;;21.00;62.30;;;;;;5123694;28;20069;-34
2022/10/18 05:45:03;;;;;;;0.77;0.45;;;21.00;62.30;;;;;;5117765;28;20035;-35
2022/10/18 05:47:29;;;;;;;1.13;0.50;;;20.90;62.30;;;;;;5103913;28;20039;-35
2022/10/18 05:49:55;;;;;;;0.68;0.50;;;20.90;62.30;;;;;;5102089;28;20118;-36
2022/10/18 05:52:21;;;;;;;0.40;0.40;;;20.90;62.20;;;;;;5102097;28;20197;-38
2022/10/18 05:54:47;;;;;;;0.68;0.45;;;20.90;62.20;;;;;;5100615;28;20106;-36
2022/10/18 05:57:14;;;;;;;0.80;0.47;;;20.90;62.10;;;;;;5095194;28;20050;-35
2022/10/18 05:59:40;;;;;;;0.57;0.40;;;20.90;62.10;;;;;;5124003;28;20028;-36
2022/10/18 06:02:06;;;;;;;0.63;0.30;;;20.90;62.10;;;;;;5107217;28;20438;-36
2022/10/18 06:04:33;;;;;;;1.75;0.32;;;20.90;62.20;;;;;;5113704;28;20035;-36
2022/10/18 06:07:00;;;;;;;0.80;0.47;;;20.80;61.90;;;;;;5123753;28;20024;-36
2022/10/18 06:09:27;;;;;;;1.13;0.40;;;20.80;62.00;;;;;;5123701;28;20065;-36
2022/10/18 06:11:54;;;;;;;0.85;0.40;;;20.80;61.90;;;;;;5117539;28;20056;-36
2022/10/18 06:14:20;;;;;;;0.50;0.40;;;20.80;61.90;;;;;;5121422;27;20032;-35
2022/10/18 06:16:46;;;;;;;0.77;0.40;;;20.70;61.90;;;;;;5089519;28;20032;-35
2022/10/18 06:19:12;;;;;;;0.43;0.30;;;20.70;61.90;;;;;;5103350;28;20044;-35
2022/10/18 06:21:38;;;;;;;0.45;0.40;;;20.70;61.90;;;;;;5101931;28;20135;-35
2022/10/18 06:24:05;;;;;;;0.52;0.40;;;20.70;61.90;;;;;;5103674;28;20060;-35
2022/10/18 06:26:31;;;;;;;0.37;0.30;;;20.70;62.10;;;;;;5102126;28;20032;-34
2022/10/18 06:28:57;;;;;;;0.30;0.30;;;20.60;61.90;;;;;;5096983;28;20043;-34
2022/10/18 06:31:23;;;;;;;0.68;0.45;;;20.60;61.90;;;;;;5101628;28;20035;-34
2022/10/18 06:33:49;;;;;;;1.55;0.40;;;20.60;61.90;;;;;;5096256;28;20704;-34
2022/10/18 06:36:17;;;;;;;0.23;0.23;;;20.60;62.00;;;;;;5093729;28;20031;-34
2022/10/18 06:38:43;;;;;;;0.22;0.20;;;20.60;61.90;;;;;;5109406;28;20075;-34
2022/10/18 06:41:09;;;;;;;0.88;0.30;;;20.60;61.90;;;;;;5103476;28;20070;-34
2022/10/18 06:43:35;;;;;;;0.50;0.30;;;20.50;61.90;;;;;;5102926;28;20020;-33
2022/10/18 06:46:03;;;;;;;0.60;0.35;;;20.50;61.90;;;;;;5096485;28;20059;-38
2022/10/18 06:48:30;;;;;;;1.25;0.47;;;20.50;61.70;;;;;;5109668;28;20067;-35
2022/10/18 06:51:00;;;;;;;0.63;0.40;;;20.50;61.50;;;;;;5106814;28;20032;-34
2022/10/18 06:53:28;;;;;;;0.40;0.40;;;20.40;61.50;;;;;;5089934;28;20088;-35
2022/10/18 06:56:03;;;;;;;1.00;0.38;;;20.40;61.30;;;;;;5084144;28;20035;-34
2022/10/18 06:58:29;;;;;;;0.20;0.20;;;20.40;61.40;;;;;;5102321;28;20032;-34
2022/10/18 07:00:56;;;;;;;0.55;0.32;;;20.40;61.40;;;;;;5088609;28;20032;-34
2022/10/18 07:03:22;;;;;;;0.30;0.20;;;20.30;61.40;;;;;;5094844;28;20021;-34
2022/10/18 07:05:51;;;;;;;0.70;0.30;;;20.30;61.40;;;;;;5107552;28;20035;-34
2022/10/18 07:08:17;;;;;;;0.95;0.30;;;20.30;61.50;;;;;;5090075;28;20158;-34
2022/10/18 07:10:51;;;;;;;0.88;0.30;;;20.30;62.10;;;;;;5103078;28;20043;-35
2022/10/18 07:13:18;;;;;;;0.73;0.38;;;20.30;61.30;;;;;;5105655;28;20056;-33
2022/10/18 07:15:44;;;;;;;0.35;0.30;;;20.20;61.30;;;;;;5104772;28;20087;-34
2022/10/18 07:18:10;;;;;;;1.85;0.40;;;20.20;61.30;;;;;;5106596;28;20035;-34
2022/10/18 07:20:36;;;;;;;0.38;0.20;;;20.20;61.30;;;;;;5105505;28;20028;-34
2022/10/18 07:23:04;;;;;;;0.32;0.30;;;20.20;61.30;;;;;;5109024;28;20028;-34
2022/10/18 07:25:30;;;;;;;0.90;0.28;;;20.20;61.30;;;;;;5112551;28;20071;-34
2022/10/18 07:27:56;;;;;;;0.30;0.30;;;20.20;61.30;;;;;;5106556;28;20028;-34
2022/10/18 07:30:22;;;;;;;0.95;0.30;;;20.10;61.20;;;;;;5107967;28;20034;-34
2022/10/18 07:32:50;;;;;;;0.40;0.20;;;20.10;61.20;;;;;;5103154;28;20020;-34
2022/10/18 07:35:17;;;;;;;0.45;0.25;;;20.10;61.10;;;;;;5106294;28;20057;-34
2022/10/18 07:37:43;;;;;;;0.90;0.30;;;20.00;61.00;;;;;;5104635;28;20099;-34
2022/10/18 07:40:10;;;;;;;1.05;0.30;;;20.00;61.00;;;;;;5119449;28;20032;-35
2022/10/18 07:42:37;;;;;;;0.90;0.25;;;20.00;60.90;;;;;;5125870;28;20043;-38
2022/10/18 07:45:03;;;;;;;0.30;0.20;;;20.00;61.00;;;;;;5114222;28;20039;-34
2022/10/18 07:47:29;;;;;;;1.73;0.30;;;19.90;60.80;;;;;;5105560;28;20052;-35
2022/10/18 07:49:55;;;;;;;0.20;0.20;;;19.90;60.90;;;;;;5103040;28;20028;-35
2022/10/18 07:52:21;;;;;;;0.57;0.38;;;19.90;60.90;;;;;;5085144;28;20042;-35
2022/10/18 07:54:47;;;;;;;0.60;0.30;;;19.80;60.80;;;;;;5099126;28;20023;-35
2022/10/18 07:57:13;;;;;;;1.10;0.30;;;19.80;60.90;;;;;;5120573;28;20032;-35
2022/10/18 07:59:40;;;;;;;0.40;0.30;;;19.80;60.90;;;;;;5105658;28;20050;-35
2022/10/18 08:02:06;;;;;;;1.30;0.20;;;19.80;60.80;;;;;;5107263;28;20050;-35
2022/10/18 08:04:32;;;;;;;0.82;0.38;;;19.80;61.00;;;;;;5091570;28;20786;-36
2022/10/18 08:06:58;;;;;;;0.90;0.30;;;19.80;61.00;;;;;;5092131;28;20036;-35
2022/10/18 08:09:24;;;;;;;0.85;0.30;;;19.70;60.70;;;;;;5104636;28;20028;-35
2022/10/18 08:11:50;;;;;;;1.77;0.40;;;19.70;60.60;;;;;;5094042;28;20052;-35
2022/10/18 08:14:16;;;;;;;0.65;0.50;;;19.70;60.50;;;;;;5114241;28;20024;-33
2022/10/18 08:16:42;;;;;;;17.30;1.00;;;19.70;60.70;;;;;;5099923;28;20025;-34
2022/10/18 08:19:08;;;;;;;7.85;1.05;;;19.70;60.80;;;;;;5096232;28;20070;-34
2022/10/18 08:21:34;;;;;;;2.88;0.80;;;19.60;61.00;;;;;;5103903;28;20036;-34
2022/10/18 08:24:01;;;;;;;4.25;0.82;;;19.60;61.00;;;;;;5101178;28;20077;-33
2022/10/18 08:26:27;;;;;;;2.13;0.90;;;19.60;61.20;;;;;;5085053;28;20090;-34
2022/10/18 08:28:53;;;;;;;2.08;0.60;;;19.70;61.40;;;;;;5102210;28;20084;-35
2022/10/18 08:31:19;;;;;;;4.88;0.70;;;19.70;61.50;;;;;;5105919;28;20114;-35
2022/10/18 08:33:46;;;;;;;4.45;0.50;;;19.60;61.40;;;;;;5114795;28;20095;-35
2022/10/18 08:36:13;;;;;;;2.97;0.60;;;19.60;61.20;;;;;;5093776;28;20040;-35
2022/10/18 08:38:40;;;;;;;3.08;0.60;;;19.60;61.10;;;;;;5099205;28;20089;-35
2022/10/18 08:41:30;;;;;;;4.40;0.75;;;19.60;61.00;;;;;;5104184;28;20552;-35
2022/10/18 08:44:25;;;;;;;2.42;0.50;;;19.60;60.80;;;;;;5100356;28;20044;-35
2022/10/18 08:46:54;;;;;;;3.13;0.70;;;19.50;60.60;;;;;;5098485;28;20110;-34
2022/10/18 08:49:44;;;;;;;0.90;0.40;;;19.50;60.50;;;;;;5116258;28;20054;-35
2022/10/18 08:52:38;;;;;;;2.80;0.50;;;19.50;60.40;;;;;;5079277;28;20024;-36
2022/10/18 08:55:24;;;;;;;2.28;0.60;;;19.50;60.20;;;;;;5083659;28;20048;-35
2022/10/18 08:57:50;;;;;;;1.50;0.60;;;19.40;60.20;;;;;;5119889;27;20066;-35
2022/10/18 09:00:24;;;;;;;3.22;0.70;;;19.40;60.10;;;;;;5099342;28;20017;-35
2022/10/18 09:03:04;;;;;;;1.83;0.68;;;19.30;59.90;;;;;;5098527;28;20060;-35
2022/10/18 09:05:33;;;;;;;3.78;0.52;;;19.30;59.90;;;;;;5088332;28;20032;-36
2022/10/18 09:08:36;;;;;;;2.30;0.50;;;19.30;59.80;;;;;;5094411;28;20109;-34
2022/10/18 09:11:38;;;;;;;1.30;0.50;;;19.20;60.30;;;;;;5087534;28;20032;-34
2022/10/18 09:14:20;;;;;;;1.85;0.50;;;19.30;60.70;;;;;;5099559;28;20048;-35
2022/10/18 09:17:05;;;;;;;0.60;0.40;;;19.30;60.60;;;;;;5134536;27;20427;-35
2022/10/18 09:19:40;;;;;;;0.63;0.40;;;19.40;60.80;;;;;;5132069;27;20012;-35
2022/10/18 09:22:38;;;;;;;0.43;0.28;;;19.40;61.00;;;;;;5095164;28;20116;-35
2022/10/18 09:25:15;;;;;;;1.67;0.40;;;19.40;61.20;;;;;;5084163;28;20584;-35
2022/10/18 09:27:55;;;;;;;0.67;0.37;;;19.50;60.70;;;;;;5092019;28;20043;-34
2022/10/18 09:30:27;;;;;;;0.43;0.30;;;19.40;60.30;;;;;;5133943;27;20419;-35
2022/10/18 09:33:30;;;;;;;0.65;0.30;;;19.40;60.20;;;;;;5094820;28;20032;-35
2022/10/18 09:36:07;;;;;;;0.40;0.30;;;19.50;61.00;;;;;;5084069;28;20031;-35
2022/10/18 09:38:44;;;;;;;1.13;0.30;;;19.50;61.20;;;;;;5097034;28;20232;-34
2022/10/18 09:41:18;;;;;;;1.10;0.47;;;19.60;61.60;;;;;;5106664;28;20024;-34
2022/10/18 09:43:50;;;;;;;0.77;0.30;;;19.60;60.80;;;;;;5132781;27;20035;-34
2022/10/18 09:46:17;;;;;;;0.50;0.30;;;19.60;60.30;;;;;;5103016;28;20032;-34
2022/10/18 09:49:00;;;;;;;0.43;0.30;;;19.60;60.10;;;;;;5103841;28;20751;-34
2022/10/18 09:51:37;;;;;;;1.52;0.40;;;19.60;60.50;;;;;;5102082;28;20051;-34
2022/10/18 09:54:20;;;;;;;0.98;0.30;;;19.60;61.10;;;;;;5094542;28;20100;-34
2022/10/18 09:57:01;;;;;;;0.63;0.30;;;19.70;61.20;;;;;;5102797;28;20025;-34
2022/10/18 09:59:48;;;;;;;0.30;0.20;;;19.70;60.50;;;;;;5102219;28;20028;-34
2022/10/18 10:02:16;;;;;;;1.70;0.30;;;19.70;60.10;;;;;;5094981;28;20036;-34
2022/10/18 10:04:42;;;;;;;0.90;0.30;;;19.70;59.80;;;;;;5089620;28;20091;-33
2022/10/18 10:07:17;;;;;;;0.30;0.20;;;19.70;60.20;;;;;;5104340;28;20052;-35
2022/10/18 10:09:48;;;;;;;0.32;0.30;;;19.70;60.90;;;;;;5099693;28;20058;-33
2022/10/18 10:12:34;;;;;;;0.20;0.20;;;19.80;61.10;;;;;;5092053;28;20040;-34
2022/10/18 10:15:19;;;;;;;0.77;0.30;;;19.80;60.10;;;;;;5119064;28;20059;-33
2022/10/18 10:17:56;;;;;;;0.40;0.20;;;19.80;60.00;;;;;;5098897;28;20087;-34
2022/10/18 10:20:52;;;;;;;0.30;0.20;;;19.80;59.80;;;;;;5100230;28;20016;-32
2022/10/18 10:23:27;;;;;;;0.40;0.20;;;19.80;60.30;;;;;;5087927;28;20032;-37
2022/10/18 10:25:58;;;;;;;1.63;0.40;;;19.80;60.90;;;;;;5101113;28;20059;-38
2022/10/18 10:28:35;;;;;;;0.52;0.25;;;19.90;60.60;;;;;;5102045;28;20066;-36
2022/10/18 10:31:27;;;;;;;0.70;0.20;;;19.90;60.30;;;;;;5102135;28;20031;-37
2022/10/18 10:34:21;;;;;;;9.32;1.33;;;19.90;59.90;;;;;;5101149;28;20082;-38
2022/10/18 10:36:48;;;;;;;8.13;1.30;;;19.90;60.20;;;;;;5095222;28;20032;-62
2022/10/18 10:39:17;;;;;;;5.70;0.80;;;19.90;61.10;;;;;;5103783;28;20555;-51
2022/10/18 10:41:49;;;;;;;6.97;1.25;;;20.00;61.40;;;;;;5105217;28;20040;-38
2022/10/18 10:44:20;;;;;;;6.63;1.00;;;20.00;61.40;;;;;;5092731;28;20020;-43
2022/10/18 10:46:47;;;;;;;2.95;1.00;;;20.00;61.50;;;;;;5097740;28;20035;-38
2022/10/18 10:49:46;;;;;;;2.17;0.90;;;20.10;60.80;;;;;;5105506;28;20023;-38
2022/10/18 10:52:19;;;;;;;5.28;1.20;;;20.10;60.00;;;;;;5084012;28;20088;-38
2022/10/18 10:54:45;;;;;;;5.95;1.10;;;20.10;59.70;;;;;;5084013;28;20033;-38
2022/10/18 10:57:11;;;;;;;4.07;1.00;;;20.10;59.60;;;;;;5066844;28;20036;-39
2022/10/18 10:59:58;;;;;;;3.55;1.00;;;20.10;59.70;;;;;;5084228;28;20508;-40
2022/10/18 11:02:34;;;;;;;3.38;0.95;;;20.20;60.10;;;;;;5066896;28;20033;-39
2022/10/18 11:05:18;;;;;;;2.72;0.82;;;20.20;60.30;;;;;;5083893;28;20037;-39
2022/10/18 11:07:45;;;;;;;3.78;0.63;;;20.20;59.80;;;;;;5083543;28;20127;-39
2022/10/18 11:10:14;;;;;;;3.25;1.08;;;20.30;59.30;;;;;;5103321;28;20555;-39
2022/10/18 11:12:45;;;;;;;4.72;0.75;;;20.30;59.10;;;;;;5072328;28;20070;-39
2022/10/18 11:15:13;;;;;;;1.60;0.63;;;20.30;59.00;;;;;;5065984;28;20032;-38
2022/10/18 11:17:43;;;;;;;1.70;0.80;;;20.30;59.10;;;;;;5083189;28;20024;-38
2022/10/18 11:20:17;;;;;;;1.40;0.50;;;20.30;59.60;;;;;;5083622;28;20115;-39
2022/10/18 11:22:48;;;;;;;1.42;0.68;;;20.30;59.80;;;;;;5083407;28;20024;-38
2022/10/18 11:25:15;;;;;;;1.42;0.70;;;20.30;59.20;;;;;;5066834;28;20044;-38
2022/10/18 11:28:03;;;;;;;1.52;0.50;;;20.30;58.70;;;;;;5093478;28;20040;-39
2022/10/18 11:30:50;;;;;;;1.02;0.50;;;20.30;58.50;;;;;;5138167;27;20737;-38
2022/10/18 11:33:29;;;;;;;2.20;0.50;;;20.30;58.70;;;;;;5097757;28;20097;-39
2022/10/18 11:36:23;;;;;;;1.23;0.50;;;20.40;58.90;;;;;;5104594;28;20040;-38
2022/10/18 11:39:13;;;;;;;0.77;0.50;;;20.40;59.20;;;;;;5104689;28;20028;-39
2022/10/18 11:41:50;;;;;;;0.75;0.45;;;20.40;59.00;;;;;;5104403;28;20024;-39
2022/10/18 11:44:49;;;;;;;0.40;0.30;;;20.40;58.60;;;;;;5105921;28;20021;-38
2022/10/18 11:47:24;;;;;;;1.23;0.40;;;20.40;58.40;;;;;;5083146;28;20057;-39
2022/10/18 11:50:30;;;;;;;0.75;0.43;;;20.40;58.50;;;;;;5082385;28;20033;-39
2022/10/18 11:53:14;;;;;;;0.68;0.50;;;20.50;58.50;;;;;;5068912;28;20073;-38
2022/10/18 11:56:01;;;;;;;1.00;0.40;;;20.50;59.00;;;;;;5067829;28;20031;-39
2022/10/18 11:58:37;;;;;;;0.75;0.43;;;20.50;58.60;;;;;;5082284;28;20115;-39
2022/10/18 12:01:31;;;;;;;0.73;0.50;;;20.50;58.30;;;;;;5082175;28;20036;-39
2022/10/18 12:04:06;;;;;;;1.35;0.40;;;20.50;58.10;;;;;;5097236;28;20132;-39
2022/10/18 12:06:34;;;;;;;0.50;0.40;;;20.50;58.00;;;;;;5082797;28;20104;-39
2022/10/18 12:09:28;;;;;;;0.75;0.43;;;20.50;57.90;;;;;;5065769;28;20413;-38
2022/10/18 12:12:00;;;;;;;0.77;0.35;;;20.40;57.80;;;;;;5096478;28;20036;-39
2022/10/18 12:14:30;;;;;;;1.42;0.30;;;20.40;57.80;;;;;;5070628;28;20089;-38
2022/10/18 12:16:59;;;;;;;1.83;0.40;;;20.40;57.80;;;;;;5103068;28;20696;-39
2022/10/18 12:19:25;;;;;;;1.58;0.40;;;20.40;57.80;;;;;;5085896;28;20582;-39
2022/10/18 12:21:52;;;;;;;1.00;0.40;;;20.30;57.70;;;;;;5085671;28;20028;-39
2022/10/18 12:24:20;;;;;;;1.10;0.38;;;20.30;57.70;;;;;;5104026;28;20481;-41
2022/10/18 12:26:47;;;;;;;1.75;0.40;;;20.30;57.70;;;;;;5086520;28;20039;-38
2022/10/18 12:29:34;;;;;;;1.10;0.30;;;20.30;57.60;;;;;;5103559;28;20552;-38
2022/10/18 12:32:12;;;;;;;0.60;0.30;;;20.20;57.50;;;;;;5103365;28;20039;-38
2022/10/18 12:34:45;;;;;;;0.68;0.35;;;20.20;57.50;;;;;;5104872;28;20028;-39
2022/10/18 12:37:25;;;;;;;1.63;0.50;;;20.20;57.40;;;;;;5104874;28;20042;-39
2022/10/18 12:40:28;;;;;;;0.98;0.30;;;20.10;57.50;;;;;;5110253;28;20050;-39
2022/10/18 12:42:54;;;;;;;0.77;0.30;;;20.10;57.40;;;;;;5124919;28;20023;-38
2022/10/18 12:45:31;;;;;;;1.27;0.30;;;20.10;57.40;;;;;;5141017;27;20031;-39
2022/10/18 12:48:01;;;;;;;0.90;0.32;;;20.00;57.30;;;;;;5124162;28;20488;-39
2022/10/18 12:50:45;;;;;;;0.70;0.30;;;20.00;57.30;;;;;;5116435;28;20035;-38
2022/10/18 12:53:11;;;;;;;1.38;0.40;;;20.00;57.30;;;;;;5094699;28;20043;-39
2022/10/18 12:55:39;;;;;;;0.95;0.50;;;19.90;57.30;;;;;;5104370;28;20113;-38
2022/10/18 12:58:28;;;;;;;1.13;0.50;;;19.90;57.30;;;;;;5104536;28;20023;-38
2022/10/18 13:00:56;;;;;;;0.60;0.30;;;19.90;57.20;;;;;;5102610;28;20032;-38
2022/10/18 13:03:24;;;;;;;1.85;0.40;;;19.80;57.30;;;;;;5091864;28;20029;-39
2022/10/18 13:05:54;;;;;;;0.63;0.28;;;19.80;57.30;;;;;;5091894;28;20036;-39
2022/10/18 13:08:26;;;;;;;0.60;0.43;;;19.80;57.30;;;;;;5104421;28;20392;-39